Sábado, 23 de Mayo del 2015

portal contactenos mapa del sitio buscar Revisar Correo Corporativo

Reporte METAR Consolidado

|| Reporte TAF Consolidado ||

Informe METAR emitido cada hora.

METAR

ESTACIÓN

AEROPUERTO

HORA UTC

DESCRIPCIÓN

SLGM

Guayaramerín

10-49S|65-20W

23:00

SLGM 222300Z 00000KT 9999 FEW017 FEW020CB BKN200 27/23 Q1011 A2988 HR80 CB W=

SLRI

Riberalta

11-00S|66-04W

23:00

SLRI 222300Z 00000KT 9999 FEW017 FEW020CB BKN200 26/24 Q1013 A2992 HR85 CB/NE=

SLCO

Cobija

11-02S|68-47W

04:00

SLCO 230400Z 00000KT 4000N FEW004 SCT200 24/24 Q1014 A2995 986.9 HR98 VFG N/NE/E

SLJO

San Joaquin

13-03S|64-39W

22:00

SLJO 222200Z 00000KT 9999 FEW017 BKN200 28/25 Q1011 A2988 HR82 RWY NML=

SLRA

San Ramón

13-15S|64-36W

22:00

SLRA 222200Z 36004KT 9999 FEW017 FEW020CB BKN200 29/24 Q1012 A2989 HR78 CB NE RWY OPR C210=

SLMG

San Magdalena

13-15S|64-03W

23:00

SLMG 222300Z 00000KT 9999 FEW017 BKN200 27/24 Q1012 A2989 HR86 RWY NML=

SLBU

Baures

13-39S|63-42W

22:00

SLBU 222200Z 35010KT 8000 VCSH FEW017 FEW023CB BKN200 26/23 Q1011 A2988 HR81 CB/SH E/SE/NW RWY NML=

SLSA

Santa Ana de Yacuma

13-45S|65-26W

23:00

SLSA 222300Z 05004KT 8000 VCSH FEW020 FEW023CB BKN200 24/22 Q1011 A2987 HR88 CB/LT/SH E/SW=

SLSR

Santa Rosa

14-04S|66-47W

22:00

SLSR 222200Z 27005KT 7000 VCSH SCT017 FEW020CB BKN080 24/24 Q1008 A2978 HR98 RETS CB/SH NE/E RWY HUM OPR=

SLRY

Reyes

14-18S|67-21W

22:00

SLRY 222200Z 00000KT 9999 FEW020 SCT200 25/24 Q1012 A2990 HR90 RWY OPR 700M C206=

SLRQ

Rurrenabaque

14-25S|67-29W

22:00

SLRQ 222200Z 00000KT 9999 FEW017CB SCT200 25/25 Q1011 A2987 HR97 CB DIST NE/E=

SLAP

Apolo

14-44S|68-24W

-

Mensaje no Recibido

SLTR

Trinidad

14-49S|64-54W

23:00

SLTR 222300Z 00000KT 9999 FEW020 FEW023CB SCT200 27/25 Q1010 A2985 992.4 HR88 CB/LT N/W NOSIG=

SLSB

San Borja

14-51S|66-44W

23:00

SLSB 222300Z 00000KT 8000 VCSH SCT023 FEW025CB BKN080 25/24 Q1011 A2988 CB/SH E SE S HR94 RWY WET OPR C210=

SLSM

San Ignacio de Moxos

14-57S|65-38W

22:00

SLSM 222200Z 36006KT 8000 -RA BKN015 FEW020CB OVC070 25/25 Q1010 A2983 HR100 CB SE/S RWY WET OPR C206=

SLAS

Ascención de Guarayos

15-55S|63-09W

23:00

SLAS 222300Z 33004KT 9999 BKN015 BKN070 26/23 Q1013 A2991 HR85 RWY NML=

SLCP

Concepción

16-08S|62-01W

22:00

SLCP 222200Z 00000KT 9999 FEW017 FEW027CB 26/24 Q1015 A2997 HR85 CB NE RWY NML=

SLLP

Internaciónal El Alto

16-08S|68-10W

05:00

SLLP 230500Z 08005KT 4000E VCFG FEW002 M02/M03 Q1038 A3066 628.1 VCFG E/SE/S HR93 NOSIG=

SLJV

San Javier

16-16S|62-28W

22:00

SLJV 222200Z 34008KT 9999 FEW020 26/22 Q1011 A2985 HR77 RWY NML =

SLTI

San Matías

16-20S|58-24W

22:00

SLTI 222200Z 00000KT 9999 SCT020 BKN200 22/22 Q1018 A3006 HR100 RERA RWY WET OPR=

SLSI

San Ignacio de Velasco

16-23S|60-57W

23:00

SLSI 222300Z 36008KT 9999 FEW017 FEW030CB 26/25 Q1013 A2991 HR86 CB N/NE RWY NML=

SLCB

Cochabamba

17-25S|66-10W

05:00

SLCB 230500Z 16004KT 9999 NSC 10/03 Q1025 A3028 751.7 HR64 FU NOSIG=

SLCN

Charaña

17-35S|69-25W

-

Mensaje no Recibido

SLVR

Internaciónal Viru Viru

17-38S|63-08W

05:00

SLVR 230500Z 36013G23KT 9999 BKN006 BKN010 23/23 Q1011 A2986 HR98 NOSIG=

SLET

El Trompillo

17-48S|63-10W

23:00

SLET 222300Z 36018KT 9999 BKN010 23/22 Q1009 A2981 HR92 NOSIG=

SLJE

San José de Chiquitos

17-49S|60-44W

22:00

SLJE 222200Z 00000KT 9999 FEW017 25/22 Q1013 A2991 HR85 RWY NML =

SLOR

Oruro

17-57S|67-04W

20:00

SLOR 222000Z 25010G20KT 9999 NSC 16/M02 Q1033 A3052 654.9 HR29=

SLRB

Roboré

18-19S|59-45W

23:00

SLRB 222300Z 36015KT 9999 FEW020 26/23 Q1014 A2994 HR84 RWY NML =

SLVG

Valle Grande

18-28S|64-05W

21:00

SLVG 222100Z 36012KT 9999 SCT025 19/13 Q1021 A3015 HR70 RWY NML =

SLPS

Puerto Suárez

18-58S|57-49W

23:00

SLPS 222300Z 06008KT 9999 NSC 26/25 Q1012 A2989 HR92 FU=

SLSU

Sucre

19-00S|65-17W

23:00

SLSU 222300Z 01005KT 9999 NSC 14/06 Q1025 A3028 HR55=

SLPO

Potosí

19-32S|65-43W

21:00

SLPO 222100Z 25008KT 9999 NSC 15/M02 Q1034 A3053 HR31=

SLAG

Monteagudo

19-49S|63-58W

21:00

SLAG 222100Z WO ATTN=

SLCA

Camiri

20-00S|63-31W

23:00

SLCA 222300Z 00000KT 9999 SCT033 23/21 Q1011 A2985 HR88 RWY NML=

SLUY

Uyuni

20-27S|62-52W

-

SLUY 230000Z 00000KT 9999 NSC 04/M05 Q1032 A3050 657.5 HR47=

SLVM

Villamontes

21-15S|63-24W

21:00

SLVM 222100Z 00000KT 9999 SCT025 28/21 Q1007 A2971 HR66=

SLTJ

Tarija

21-33S|64-42W

02:00

SLTJ 230200Z 00000KT 9999 FEW070 14/13 Q1016 A3000 HR89=

SLYA

Yacuiba

21-57S|63-39W

23:00

SLYA 222300Z 00000KT 9999 FEW017 BKN070 23/22 Q1010 A2984 HR97 FU=

SLBJ

Bermejo

22-46S|64-18W

21:00

COR SLBJ 222100Z 00000KT 9999 SCT036 BKN070 27/22 Q1003 A2962 HR76=